sensor_id;sensor_type;location;lat;lon;timestamp;P1;durP1;ratioP1;P2;durP2;ratioP2
69841;SDS011;57138;51.326;-0.068;2023-06-10T00:01:32;28.70;;;12.18;;
69841;SDS011;57138;51.326;-0.068;2023-06-10T00:03:59;33.45;;;13.18;;
69841;SDS011;57138;51.326;-0.068;2023-06-10T00:06:24;28.10;;;11.65;;
69841;SDS011;57138;51.326;-0.068;2023-06-10T00:08:50;31.60;;;12.85;;
69841;SDS011;57138;51.326;-0.068;2023-06-10T00:11:16;26.58;;;10.05;;
69841;SDS011;57138;51.326;-0.068;2023-06-10T00:13:41;26.33;;;11.45;;
69841;SDS011;57138;51.326;-0.068;2023-06-10T00:16:07;25.08;;;11.02;;
69841;SDS011;57138;51.326;-0.068;2023-06-10T00:18:33;29.17;;;11.60;;
69841;SDS011;57138;51.326;-0.068;2023-06-10T00:21:01;28.73;;;10.75;;
69841;SDS011;57138;51.326;-0.068;2023-06-10T00:23:29;25.73;;;10.75;;
69841;SDS011;57138;51.326;-0.068;2023-06-10T00:25:56;28.48;;;10.95;;
69841;SDS011;57138;51.326;-0.068;2023-06-10T00:28:23;41.53;;;12.02;;
69841;SDS011;57138;51.326;-0.068;2023-06-10T00:30:48;30.67;;;11.43;;
69841;SDS011;57138;51.326;-0.068;2023-06-10T00:33:14;28.23;;;11.45;;
69841;SDS011;57138;51.326;-0.068;2023-06-10T00:35:40;37.30;;;12.38;;
69841;SDS011;57138;51.326;-0.068;2023-06-10T00:38:05;27.13;;;10.48;;
69841;SDS011;57138;51.326;-0.068;2023-06-10T00:40:30;33.03;;;11.82;;
69841;SDS011;57138;51.326;-0.068;2023-06-10T00:42:56;33.05;;;13.68;;
69841;SDS011;57138;51.326;-0.068;2023-06-10T00:45:22;29.35;;;12.23;;
69841;SDS011;57138;51.326;-0.068;2023-06-10T00:47:47;29.30;;;12.50;;
69841;SDS011;57138;51.326;-0.068;2023-06-10T00:50:13;27.58;;;13.18;;
69841;SDS011;57138;51.326;-0.068;2023-06-10T00:52:38;28.55;;;12.68;;
69841;SDS011;57138;51.326;-0.068;2023-06-10T00:55:04;28.30;;;11.82;;
69841;SDS011;57138;51.326;-0.068;2023-06-10T00:57:30;25.13;;;12.25;;
69841;SDS011;57138;51.326;-0.068;2023-06-10T00:59:55;30.95;;;12.63;;
69841;SDS011;57138;51.326;-0.068;2023-06-10T01:02:22;32.22;;;14.05;;
69841;SDS011;57138;51.326;-0.068;2023-06-10T01:04:47;31.42;;;13.25;;
69841;SDS011;57138;51.326;-0.068;2023-06-10T01:07:25;35.75;;;13.07;;
69841;SDS011;57138;51.326;-0.068;2023-06-10T01:12:33;34.38;;;13.88;;
69841;SDS011;57138;51.326;-0.068;2023-06-10T01:15:24;36.30;;;15.10;;
69841;SDS011;57138;51.326;-0.068;2023-06-10T01:20:19;31.75;;;12.20;;
69841;SDS011;57138;51.326;-0.068;2023-06-10T01:22:45;28.60;;;11.88;;
69841;SDS011;57138;51.326;-0.068;2023-06-10T01:25:10;24.88;;;11.48;;
69841;SDS011;57138;51.326;-0.068;2023-06-10T01:27:36;27.10;;;12.15;;
69841;SDS011;57138;51.326;-0.068;2023-06-10T01:30:06;32.17;;;12.77;;
69841;SDS011;57138;51.326;-0.068;2023-06-10T01:32:44;38.15;;;12.88;;
69841;SDS011;57138;51.326;-0.068;2023-06-10T01:35:12;39.28;;;12.90;;
69841;SDS011;57138;51.326;-0.068;2023-06-10T01:37:39;34.03;;;12.80;;
69841;SDS011;57138;51.326;-0.068;2023-06-10T01:40:08;25.17;;;12.50;;
69841;SDS011;57138;51.326;-0.068;2023-06-10T01:42:34;37.42;;;11.70;;
69841;SDS011;57138;51.326;-0.068;2023-06-10T01:45:00;43.13;;;15.32;;
69841;SDS011;57138;51.326;-0.068;2023-06-10T01:47:26;31.88;;;11.60;;
69841;SDS011;57138;51.326;-0.068;2023-06-10T01:49:52;27.25;;;11.45;;
69841;SDS011;57138;51.326;-0.068;2023-06-10T01:52:17;34.97;;;12.93;;
69841;SDS011;57138;51.326;-0.068;2023-06-10T01:54:43;37.40;;;13.57;;
69841;SDS011;57138;51.326;-0.068;2023-06-10T01:57:09;30.35;;;12.95;;
69841;SDS011;57138;51.326;-0.068;2023-06-10T01:59:35;35.40;;;13.23;;
69841;SDS011;57138;51.326;-0.068;2023-06-10T02:02:01;31.13;;;12.73;;
69841;SDS011;57138;51.326;-0.068;2023-06-10T02:04:27;32.47;;;12.25;;
69841;SDS011;57138;51.326;-0.068;2023-06-10T02:06:53;28.13;;;12.23;;
69841;SDS011;57138;51.326;-0.068;2023-06-10T02:09:18;32.70;;;12.98;;
69841;SDS011;57138;51.326;-0.068;2023-06-10T02:11:44;35.13;;;12.70;;
69841;SDS011;57138;51.326;-0.068;2023-06-10T02:14:09;39.92;;;14.85;;
69841;SDS011;57138;51.326;-0.068;2023-06-10T02:16:35;32.47;;;13.25;;
69841;SDS011;57138;51.326;-0.068;2023-06-10T02:19:00;28.77;;;12.18;;
69841;SDS011;57138;51.326;-0.068;2023-06-10T02:21:26;33.20;;;11.80;;
69841;SDS011;57138;51.326;-0.068;2023-06-10T02:23:51;32.45;;;12.27;;
69841;SDS011;57138;51.326;-0.068;2023-06-10T02:26:16;31.40;;;12.05;;
69841;SDS011;57138;51.326;-0.068;2023-06-10T02:28:42;36.47;;;12.90;;
69841;SDS011;57138;51.326;-0.068;2023-06-10T02:31:08;31.17;;;12.65;;
69841;SDS011;57138;51.326;-0.068;2023-06-10T02:33:33;33.63;;;12.50;;
69841;SDS011;57138;51.326;-0.068;2023-06-10T02:35:59;39.03;;;12.60;;
69841;SDS011;57138;51.326;-0.068;2023-06-10T02:38:24;26.40;;;13.00;;
69841;SDS011;57138;51.326;-0.068;2023-06-10T02:40:49;28.58;;;11.73;;
69841;SDS011;57138;51.326;-0.068;2023-06-10T02:43:15;35.17;;;13.82;;
69841;SDS011;57138;51.326;-0.068;2023-06-10T02:45:41;34.03;;;12.35;;
69841;SDS011;57138;51.326;-0.068;2023-06-10T02:48:06;31.48;;;11.32;;
69841;SDS011;57138;51.326;-0.068;2023-06-10T02:50:31;30.90;;;12.90;;
69841;SDS011;57138;51.326;-0.068;2023-06-10T02:52:57;31.52;;;12.98;;
69841;SDS011;57138;51.326;-0.068;2023-06-10T02:55:22;33.17;;;13.73;;
69841;SDS011;57138;51.326;-0.068;2023-06-10T02:57:51;38.00;;;12.80;;
69841;SDS011;57138;51.326;-0.068;2023-06-10T03:00:19;30.85;;;13.30;;
69841;SDS011;57138;51.326;-0.068;2023-06-10T03:02:46;30.73;;;12.07;;
69841;SDS011;57138;51.326;-0.068;2023-06-10T03:05:12;36.53;;;13.65;;
69841;SDS011;57138;51.326;-0.068;2023-06-10T03:07:40;34.47;;;13.10;;
69841;SDS011;57138;51.326;-0.068;2023-06-10T03:10:05;36.85;;;13.93;;
69841;SDS011;57138;51.326;-0.068;2023-06-10T03:12:31;40.17;;;13.95;;
69841;SDS011;57138;51.326;-0.068;2023-06-10T03:14:57;40.13;;;13.27;;
69841;SDS011;57138;51.326;-0.068;2023-06-10T03:17:22;37.50;;;12.93;;
69841;SDS011;57138;51.326;-0.068;2023-06-10T03:19:48;36.95;;;14.32;;
69841;SDS011;57138;51.326;-0.068;2023-06-10T03:22:14;33.45;;;12.88;;
69841;SDS011;57138;51.326;-0.068;2023-06-10T03:24:41;36.30;;;13.23;;
69841;SDS011;57138;51.326;-0.068;2023-06-10T03:27:08;30.75;;;14.30;;
69841;SDS011;57138;51.326;-0.068;2023-06-10T03:29:36;36.45;;;13.40;;
69841;SDS011;57138;51.326;-0.068;2023-06-10T03:32:02;39.67;;;13.10;;
69841;SDS011;57138;51.326;-0.068;2023-06-10T03:34:27;35.15;;;13.35;;
69841;SDS011;57138;51.326;-0.068;2023-06-10T03:36:58;28.27;;;12.40;;
69841;SDS011;57138;51.326;-0.068;2023-06-10T03:39:23;34.85;;;13.55;;
69841;SDS011;57138;51.326;-0.068;2023-06-10T03:41:49;38.85;;;14.43;;
69841;SDS011;57138;51.326;-0.068;2023-06-10T03:44:15;33.13;;;12.85;;
69841;SDS011;57138;51.326;-0.068;2023-06-10T03:46:41;33.85;;;14.98;;
69841;SDS011;57138;51.326;-0.068;2023-06-10T03:49:06;32.13;;;12.00;;
69841;SDS011;57138;51.326;-0.068;2023-06-10T03:51:32;33.90;;;13.18;;
69841;SDS011;57138;51.326;-0.068;2023-06-10T03:53:57;39.75;;;13.30;;
69841;SDS011;57138;51.326;-0.068;2023-06-10T03:56:23;35.30;;;13.02;;
69841;SDS011;57138;51.326;-0.068;2023-06-10T03:58:48;29.90;;;12.23;;
69841;SDS011;57138;51.326;-0.068;2023-06-10T04:01:14;38.65;;;13.32;;
69841;SDS011;57138;51.326;-0.068;2023-06-10T04:03:40;40.45;;;12.52;;
69841;SDS011;57138;51.326;-0.068;2023-06-10T04:06:09;32.75;;;13.02;;
69841;SDS011;57138;51.326;-0.068;2023-06-10T04:08:35;32.78;;;13.32;;
69841;SDS011;57138;51.326;-0.068;2023-06-10T04:11:01;35.95;;;12.60;;
69841;SDS011;57138;51.326;-0.068;2023-06-10T04:13:27;32.67;;;12.75;;
69841;SDS011;57138;51.326;-0.068;2023-06-10T04:15:53;36.30;;;12.60;;
69841;SDS011;57138;51.326;-0.068;2023-06-10T04:18:19;35.00;;;12.80;;
69841;SDS011;57138;51.326;-0.068;2023-06-10T04:20:45;38.47;;;15.00;;
69841;SDS011;57138;51.326;-0.068;2023-06-10T04:23:11;36.28;;;12.52;;
69841;SDS011;57138;51.326;-0.068;2023-06-10T04:25:36;35.55;;;13.38;;
69841;SDS011;57138;51.326;-0.068;2023-06-10T04:28:02;28.45;;;11.95;;
69841;SDS011;57138;51.326;-0.068;2023-06-10T04:30:27;31.70;;;11.98;;
69841;SDS011;57138;51.326;-0.068;2023-06-10T04:32:53;39.15;;;14.45;;
69841;SDS011;57138;51.326;-0.068;2023-06-10T04:35:19;32.42;;;12.48;;
69841;SDS011;57138;51.326;-0.068;2023-06-10T04:37:44;27.88;;;12.77;;
69841;SDS011;57138;51.326;-0.068;2023-06-10T04:40:10;40.65;;;14.50;;
69841;SDS011;57138;51.326;-0.068;2023-06-10T04:42:36;37.05;;;12.90;;
69841;SDS011;57138;51.326;-0.068;2023-06-10T04:45:02;31.33;;;12.57;;
69841;SDS011;57138;51.326;-0.068;2023-06-10T04:47:28;30.15;;;12.38;;
69841;SDS011;57138;51.326;-0.068;2023-06-10T04:49:55;31.05;;;12.43;;
69841;SDS011;57138;51.326;-0.068;2023-06-10T04:52:21;28.92;;;12.80;;
69841;SDS011;57138;51.326;-0.068;2023-06-10T04:54:46;29.85;;;12.13;;
69841;SDS011;57138;51.326;-0.068;2023-06-10T04:57:13;36.78;;;11.77;;
69841;SDS011;57138;51.326;-0.068;2023-06-10T04:59:38;26.77;;;11.88;;
69841;SDS011;57138;51.326;-0.068;2023-06-10T05:02:05;26.70;;;11.13;;
69841;SDS011;57138;51.326;-0.068;2023-06-10T05:04:30;32.38;;;10.05;;
69841;SDS011;57138;51.326;-0.068;2023-06-10T05:06:56;41.10;;;15.00;;
69841;SDS011;57138;51.326;-0.068;2023-06-10T05:09:22;25.48;;;11.32;;
69841;SDS011;57138;51.326;-0.068;2023-06-10T05:11:47;28.42;;;11.23;;
69841;SDS011;57138;51.326;-0.068;2023-06-10T05:14:13;26.08;;;11.15;;
69841;SDS011;57138;51.326;-0.068;2023-06-10T05:16:38;27.10;;;10.80;;
69841;SDS011;57138;51.326;-0.068;2023-06-10T05:19:04;26.70;;;10.13;;
69841;SDS011;57138;51.326;-0.068;2023-06-10T05:21:30;26.58;;;9.25;;
69841;SDS011;57138;51.326;-0.068;2023-06-10T05:23:55;19.00;;;9.82;;
69841;SDS011;57138;51.326;-0.068;2023-06-10T05:26:20;30.02;;;11.30;;
69841;SDS011;57138;51.326;-0.068;2023-06-10T05:28:46;21.73;;;9.77;;
69841;SDS011;57138;51.326;-0.068;2023-06-10T05:31:12;29.67;;;10.80;;
69841;SDS011;57138;51.326;-0.068;2023-06-10T05:33:37;29.42;;;10.77;;
69841;SDS011;57138;51.326;-0.068;2023-06-10T05:36:03;28.33;;;10.85;;
69841;SDS011;57138;51.326;-0.068;2023-06-10T05:38:29;24.42;;;10.75;;
69841;SDS011;57138;51.326;-0.068;2023-06-10T05:40:54;33.78;;;10.05;;
69841;SDS011;57138;51.326;-0.068;2023-06-10T05:43:21;26.27;;;9.75;;
69841;SDS011;57138;51.326;-0.068;2023-06-10T05:45:47;26.50;;;10.13;;
69841;SDS011;57138;51.326;-0.068;2023-06-10T05:48:12;27.83;;;12.23;;
69841;SDS011;57138;51.326;-0.068;2023-06-10T05:50:39;32.45;;;10.68;;
69841;SDS011;57138;51.326;-0.068;2023-06-10T05:53:07;25.23;;;10.82;;
69841;SDS011;57138;51.326;-0.068;2023-06-10T05:55:39;27.20;;;10.48;;
69841;SDS011;57138;51.326;-0.068;2023-06-10T05:58:06;26.27;;;9.85;;
69841;SDS011;57138;51.326;-0.068;2023-06-10T06:00:32;26.60;;;10.90;;
69841;SDS011;57138;51.326;-0.068;2023-06-10T06:02:57;24.75;;;10.68;;
69841;SDS011;57138;51.326;-0.068;2023-06-10T06:05:23;39.60;;;10.48;;
69841;SDS011;57138;51.326;-0.068;2023-06-10T06:07:49;26.40;;;9.50;;
69841;SDS011;57138;51.326;-0.068;2023-06-10T06:10:16;31.70;;;11.25;;
69841;SDS011;57138;51.326;-0.068;2023-06-10T06:12:42;23.00;;;8.82;;
69841;SDS011;57138;51.326;-0.068;2023-06-10T06:15:07;31.17;;;10.48;;
69841;SDS011;57138;51.326;-0.068;2023-06-10T06:17:33;31.33;;;10.60;;
69841;SDS011;57138;51.326;-0.068;2023-06-10T06:19:59;35.25;;;11.40;;
69841;SDS011;57138;51.326;-0.068;2023-06-10T06:22:24;25.75;;;10.80;;
69841;SDS011;57138;51.326;-0.068;2023-06-10T06:24:50;27.67;;;10.18;;
69841;SDS011;57138;51.326;-0.068;2023-06-10T06:27:15;24.60;;;10.50;;
69841;SDS011;57138;51.326;-0.068;2023-06-10T06:29:41;21.40;;;9.50;;
69841;SDS011;57138;51.326;-0.068;2023-06-10T06:32:06;23.05;;;10.07;;
69841;SDS011;57138;51.326;-0.068;2023-06-10T06:34:32;28.00;;;11.85;;
69841;SDS011;57138;51.326;-0.068;2023-06-10T06:36:58;25.42;;;9.25;;
69841;SDS011;57138;51.326;-0.068;2023-06-10T06:39:24;30.45;;;11.82;;
69841;SDS011;57138;51.326;-0.068;2023-06-10T06:41:49;32.50;;;11.15;;
69841;SDS011;57138;51.326;-0.068;2023-06-10T06:44:15;27.40;;;9.75;;
69841;SDS011;57138;51.326;-0.068;2023-06-10T06:46:40;24.25;;;9.82;;
69841;SDS011;57138;51.326;-0.068;2023-06-10T06:49:06;25.40;;;9.95;;
69841;SDS011;57138;51.326;-0.068;2023-06-10T06:51:31;27.88;;;11.15;;
69841;SDS011;57138;51.326;-0.068;2023-06-10T06:53:57;25.98;;;10.90;;
69841;SDS011;57138;51.326;-0.068;2023-06-10T06:56:23;24.23;;;9.70;;
69841;SDS011;57138;51.326;-0.068;2023-06-10T06:58:50;29.08;;;10.23;;
69841;SDS011;57138;51.326;-0.068;2023-06-10T07:01:15;28.60;;;10.80;;
69841;SDS011;57138;51.326;-0.068;2023-06-10T07:03:41;25.42;;;10.27;;
69841;SDS011;57138;51.326;-0.068;2023-06-10T07:06:06;20.95;;;9.40;;
69841;SDS011;57138;51.326;-0.068;2023-06-10T07:08:32;22.13;;;10.18;;
69841;SDS011;57138;51.326;-0.068;2023-06-10T07:10:57;29.33;;;8.82;;
69841;SDS011;57138;51.326;-0.068;2023-06-10T07:13:22;21.23;;;10.38;;
69841;SDS011;57138;51.326;-0.068;2023-06-10T07:15:48;20.17;;;9.30;;
69841;SDS011;57138;51.326;-0.068;2023-06-10T07:18:14;21.55;;;10.45;;
69841;SDS011;57138;51.326;-0.068;2023-06-10T07:20:41;28.70;;;10.73;;
69841;SDS011;57138;51.326;-0.068;2023-06-10T07:23:06;24.05;;;8.90;;
69841;SDS011;57138;51.326;-0.068;2023-06-10T07:25:32;21.55;;;9.45;;
69841;SDS011;57138;51.326;-0.068;2023-06-10T07:27:58;27.50;;;10.10;;
69841;SDS011;57138;51.326;-0.068;2023-06-10T07:30:23;22.27;;;9.27;;
69841;SDS011;57138;51.326;-0.068;2023-06-10T07:32:48;24.40;;;8.68;;
69841;SDS011;57138;51.326;-0.068;2023-06-10T07:35:14;24.27;;;11.88;;
69841;SDS011;57138;51.326;-0.068;2023-06-10T07:37:39;19.17;;;8.90;;
69841;SDS011;57138;51.326;-0.068;2023-06-10T07:40:05;29.33;;;9.57;;
69841;SDS011;57138;51.326;-0.068;2023-06-10T07:42:34;26.85;;;9.48;;
69841;SDS011;57138;51.326;-0.068;2023-06-10T07:45:04;21.52;;;9.30;;
69841;SDS011;57138;51.326;-0.068;2023-06-10T07:47:30;26.85;;;9.73;;
69841;SDS011;57138;51.326;-0.068;2023-06-10T07:49:56;24.65;;;10.00;;
69841;SDS011;57138;51.326;-0.068;2023-06-10T07:52:21;27.70;;;9.80;;
69841;SDS011;57138;51.326;-0.068;2023-06-10T07:54:46;24.48;;;9.57;;
69841;SDS011;57138;51.326;-0.068;2023-06-10T07:57:12;22.15;;;9.50;;
69841;SDS011;57138;51.326;-0.068;2023-06-10T07:59:37;21.50;;;9.23;;
69841;SDS011;57138;51.326;-0.068;2023-06-10T08:02:03;19.17;;;8.23;;
69841;SDS011;57138;51.326;-0.068;2023-06-10T08:04:29;30.25;;;10.05;;
69841;SDS011;57138;51.326;-0.068;2023-06-10T08:06:56;19.92;;;8.90;;
69841;SDS011;57138;51.326;-0.068;2023-06-10T08:09:21;21.55;;;8.48;;
69841;SDS011;57138;51.326;-0.068;2023-06-10T08:11:48;22.50;;;9.15;;
69841;SDS011;57138;51.326;-0.068;2023-06-10T08:14:14;25.30;;;8.68;;
69841;SDS011;57138;51.326;-0.068;2023-06-10T08:16:41;22.85;;;8.55;;
69841;SDS011;57138;51.326;-0.068;2023-06-10T08:19:08;17.77;;;8.32;;
69841;SDS011;57138;51.326;-0.068;2023-06-10T08:21:34;22.60;;;8.68;;
69841;SDS011;57138;51.326;-0.068;2023-06-10T08:24:02;21.17;;;8.63;;
69841;SDS011;57138;51.326;-0.068;2023-06-10T08:26:28;22.23;;;9.75;;
69841;SDS011;57138;51.326;-0.068;2023-06-10T08:28:53;14.80;;;7.63;;
69841;SDS011;57138;51.326;-0.068;2023-06-10T08:31:20;20.23;;;8.23;;
69841;SDS011;57138;51.326;-0.068;2023-06-10T08:33:45;20.40;;;9.60;;
69841;SDS011;57138;51.326;-0.068;2023-06-10T08:36:11;21.27;;;8.70;;
69841;SDS011;57138;51.326;-0.068;2023-06-10T08:38:37;17.27;;;7.43;;
69841;SDS011;57138;51.326;-0.068;2023-06-10T08:41:02;19.08;;;8.90;;
69841;SDS011;57138;51.326;-0.068;2023-06-10T08:46:04;26.52;;;10.63;;
69841;SDS011;57138;51.326;-0.068;2023-06-10T08:48:35;17.67;;;9.15;;
69841;SDS011;57138;51.326;-0.068;2023-06-10T08:51:08;21.70;;;8.60;;
69841;SDS011;57138;51.326;-0.068;2023-06-10T08:53:36;20.58;;;8.52;;
69841;SDS011;57138;51.326;-0.068;2023-06-10T08:56:04;15.48;;;7.30;;
69841;SDS011;57138;51.326;-0.068;2023-06-10T08:58:32;23.35;;;9.55;;
69841;SDS011;57138;51.326;-0.068;2023-06-10T09:01:06;21.15;;;8.52;;
69841;SDS011;57138;51.326;-0.068;2023-06-10T09:03:33;16.25;;;7.88;;
69841;SDS011;57138;51.326;-0.068;2023-06-10T09:06:03;21.02;;;8.38;;
69841;SDS011;57138;51.326;-0.068;2023-06-10T09:08:30;22.65;;;9.40;;
69841;SDS011;57138;51.326;-0.068;2023-06-10T09:10:56;18.67;;;8.30;;
69841;SDS011;57138;51.326;-0.068;2023-06-10T09:13:22;18.30;;;9.63;;
69841;SDS011;57138;51.326;-0.068;2023-06-10T09:15:48;17.88;;;7.88;;
69841;SDS011;57138;51.326;-0.068;2023-06-10T09:18:14;17.77;;;8.35;;
69841;SDS011;57138;51.326;-0.068;2023-06-10T09:20:39;19.85;;;8.63;;
69841;SDS011;57138;51.326;-0.068;2023-06-10T09:23:06;19.40;;;9.15;;
69841;SDS011;57138;51.326;-0.068;2023-06-10T09:25:35;16.02;;;6.97;;
69841;SDS011;57138;51.326;-0.068;2023-06-10T09:28:03;13.90;;;7.22;;
69841;SDS011;57138;51.326;-0.068;2023-06-10T09:30:30;19.60;;;9.30;;
69841;SDS011;57138;51.326;-0.068;2023-06-10T09:32:57;20.33;;;9.40;;
69841;SDS011;57138;51.326;-0.068;2023-06-10T09:35:25;20.05;;;8.68;;
69841;SDS011;57138;51.326;-0.068;2023-06-10T09:37:52;22.00;;;8.15;;
69841;SDS011;57138;51.326;-0.068;2023-06-10T09:40:18;12.35;;;7.60;;
69841;SDS011;57138;51.326;-0.068;2023-06-10T09:42:44;17.38;;;7.95;;
69841;SDS011;57138;51.326;-0.068;2023-06-10T09:45:10;22.10;;;7.50;;
69841;SDS011;57138;51.326;-0.068;2023-06-10T09:47:35;15.80;;;8.05;;
69841;SDS011;57138;51.326;-0.068;2023-06-10T09:50:00;16.65;;;7.63;;
69841;SDS011;57138;51.326;-0.068;2023-06-10T09:52:28;18.45;;;8.00;;
69841;SDS011;57138;51.326;-0.068;2023-06-10T09:54:58;20.35;;;8.05;;
69841;SDS011;57138;51.326;-0.068;2023-06-10T09:57:26;18.42;;;7.88;;
69841;SDS011;57138;51.326;-0.068;2023-06-10T09:59:57;16.45;;;6.82;;
69841;SDS011;57138;51.326;-0.068;2023-06-10T10:02:23;13.63;;;8.60;;
69841;SDS011;57138;51.326;-0.068;2023-06-10T10:04:48;15.60;;;7.60;;
69841;SDS011;57138;51.326;-0.068;2023-06-10T10:07:14;14.45;;;7.03;;
69841;SDS011;57138;51.326;-0.068;2023-06-10T10:09:40;12.23;;;7.43;;
69841;SDS011;57138;51.326;-0.068;2023-06-10T10:12:11;17.15;;;8.77;;
69841;SDS011;57138;51.326;-0.068;2023-06-10T10:14:38;14.27;;;7.30;;
69841;SDS011;57138;51.326;-0.068;2023-06-10T10:17:07;13.15;;;7.00;;
69841;SDS011;57138;51.326;-0.068;2023-06-10T10:19:36;14.15;;;7.55;;
69841;SDS011;57138;51.326;-0.068;2023-06-10T10:22:19;17.20;;;8.32;;
69841;SDS011;57138;51.326;-0.068;2023-06-10T10:24:50;12.38;;;6.75;;
69841;SDS011;57138;51.326;-0.068;2023-06-10T10:27:20;17.45;;;7.55;;
69841;SDS011;57138;51.326;-0.068;2023-06-10T10:29:54;18.13;;;7.10;;
69841;SDS011;57138;51.326;-0.068;2023-06-10T10:32:21;13.98;;;7.28;;
69841;SDS011;57138;51.326;-0.068;2023-06-10T10:35:03;12.68;;;7.20;;
69841;SDS011;57138;51.326;-0.068;2023-06-10T10:37:34;17.50;;;7.80;;
69841;SDS011;57138;51.326;-0.068;2023-06-10T10:40:01;14.20;;;7.22;;
69841;SDS011;57138;51.326;-0.068;2023-06-10T10:42:28;10.15;;;5.80;;
69841;SDS011;57138;51.326;-0.068;2023-06-10T10:44:55;12.50;;;5.78;;
69841;SDS011;57138;51.326;-0.068;2023-06-10T10:47:21;12.55;;;6.63;;
69841;SDS011;57138;51.326;-0.068;2023-06-10T10:49:51;10.98;;;5.43;;
69841;SDS011;57138;51.326;-0.068;2023-06-10T10:52:19;9.30;;;5.15;;
69841;SDS011;57138;51.326;-0.068;2023-06-10T10:54:46;19.02;;;6.97;;
69841;SDS011;57138;51.326;-0.068;2023-06-10T10:57:13;11.63;;;5.72;;
69841;SDS011;57138;51.326;-0.068;2023-06-10T11:05:40;11.43;;;6.18;;
69841;SDS011;57138;51.326;-0.068;2023-06-10T11:08:09;11.70;;;5.03;;
69841;SDS011;57138;51.326;-0.068;2023-06-10T11:10:39;10.45;;;5.45;;
69841;SDS011;57138;51.326;-0.068;2023-06-10T11:15:39;9.13;;;5.45;;
69841;SDS011;57138;51.326;-0.068;2023-06-10T11:18:12;6.63;;;4.25;;
69841;SDS011;57138;51.326;-0.068;2023-06-10T11:26:08;7.18;;;5.20;;
69841;SDS011;57138;51.326;-0.068;2023-06-10T11:31:28;11.50;;;5.22;;
69841;SDS011;57138;51.326;-0.068;2023-06-10T11:33:58;9.13;;;5.50;;
69841;SDS011;57138;51.326;-0.068;2023-06-10T11:36:26;11.18;;;5.25;;
69841;SDS011;57138;51.326;-0.068;2023-06-10T11:38:57;9.48;;;5.65;;
69841;SDS011;57138;51.326;-0.068;2023-06-10T11:41:24;9.90;;;5.60;;
69841;SDS011;57138;51.326;-0.068;2023-06-10T11:43:53;10.82;;;6.22;;
69841;SDS011;57138;51.326;-0.068;2023-06-10T11:46:22;11.23;;;5.72;;
69841;SDS011;57138;51.326;-0.068;2023-06-10T11:48:49;12.45;;;5.35;;
69841;SDS011;57138;51.326;-0.068;2023-06-10T11:51:15;9.50;;;5.38;;
69841;SDS011;57138;51.326;-0.068;2023-06-10T11:53:40;13.13;;;5.03;;
69841;SDS011;57138;51.326;-0.068;2023-06-10T11:56:12;14.00;;;5.93;;
69841;SDS011;57138;51.326;-0.068;2023-06-10T11:58:37;8.18;;;5.55;;
69841;SDS011;57138;51.326;-0.068;2023-06-10T12:01:08;10.05;;;5.85;;
69841;SDS011;57138;51.326;-0.068;2023-06-10T12:03:37;15.52;;;5.78;;
69841;SDS011;57138;51.326;-0.068;2023-06-10T12:06:04;11.60;;;6.07;;
69841;SDS011;57138;51.326;-0.068;2023-06-10T12:08:33;12.35;;;6.15;;
69841;SDS011;57138;51.326;-0.068;2023-06-10T12:10:58;17.20;;;7.65;;
69841;SDS011;57138;51.326;-0.068;2023-06-10T12:13:28;15.60;;;6.38;;
69841;SDS011;57138;51.326;-0.068;2023-06-10T12:15:53;13.77;;;6.63;;
69841;SDS011;57138;51.326;-0.068;2023-06-10T12:18:22;12.27;;;6.60;;
69841;SDS011;57138;51.326;-0.068;2023-06-10T12:20:51;12.85;;;6.30;;
69841;SDS011;57138;51.326;-0.068;2023-06-10T12:23:17;13.10;;;6.78;;
69841;SDS011;57138;51.326;-0.068;2023-06-10T12:25:54;12.52;;;7.07;;
69841;SDS011;57138;51.326;-0.068;2023-06-10T12:28:21;11.93;;;6.75;;
69841;SDS011;57138;51.326;-0.068;2023-06-10T12:30:48;11.30;;;6.85;;
69841;SDS011;57138;51.326;-0.068;2023-06-10T12:33:17;12.80;;;6.50;;
69841;SDS011;57138;51.326;-0.068;2023-06-10T12:35:49;14.93;;;6.85;;
69841;SDS011;57138;51.326;-0.068;2023-06-10T12:38:21;12.25;;;6.30;;
69841;SDS011;57138;51.326;-0.068;2023-06-10T12:40:49;11.80;;;7.13;;
69841;SDS011;57138;51.326;-0.068;2023-06-10T12:43:24;10.18;;;6.70;;
69841;SDS011;57138;51.326;-0.068;2023-06-10T12:45:50;15.68;;;7.05;;
69841;SDS011;57138;51.326;-0.068;2023-06-10T12:48:19;12.07;;;7.25;;
69841;SDS011;57138;51.326;-0.068;2023-06-10T12:50:53;15.68;;;7.00;;
69841;SDS011;57138;51.326;-0.068;2023-06-10T12:53:23;11.57;;;6.88;;
69841;SDS011;57138;51.326;-0.068;2023-06-10T12:55:50;12.73;;;6.90;;
69841;SDS011;57138;51.326;-0.068;2023-06-10T12:58:19;9.52;;;5.55;;
69841;SDS011;57138;51.326;-0.068;2023-06-10T13:00:45;9.95;;;5.60;;
69841;SDS011;57138;51.326;-0.068;2023-06-10T13:03:13;9.45;;;6.88;;
69841;SDS011;57138;51.326;-0.068;2023-06-10T13:05:39;13.57;;;6.40;;
69841;SDS011;57138;51.326;-0.068;2023-06-10T13:08:05;12.68;;;6.10;;
69841;SDS011;57138;51.326;-0.068;2023-06-10T13:10:32;9.43;;;5.07;;
69841;SDS011;57138;51.326;-0.068;2023-06-10T13:12:59;11.20;;;6.05;;
69841;SDS011;57138;51.326;-0.068;2023-06-10T13:15:26;9.75;;;5.82;;
69841;SDS011;57138;51.326;-0.068;2023-06-10T13:17:51;9.05;;;5.35;;
69841;SDS011;57138;51.326;-0.068;2023-06-10T13:20:17;9.98;;;5.70;;
69841;SDS011;57138;51.326;-0.068;2023-06-10T13:22:43;11.13;;;6.18;;
69841;SDS011;57138;51.326;-0.068;2023-06-10T13:25:09;13.07;;;6.05;;
69841;SDS011;57138;51.326;-0.068;2023-06-10T13:27:37;10.13;;;5.82;;
69841;SDS011;57138;51.326;-0.068;2023-06-10T13:30:04;11.13;;;6.65;;
69841;SDS011;57138;51.326;-0.068;2023-06-10T13:32:34;12.02;;;6.28;;
69841;SDS011;57138;51.326;-0.068;2023-06-10T13:35:00;9.05;;;6.10;;
69841;SDS011;57138;51.326;-0.068;2023-06-10T13:37:26;10.27;;;6.15;;
69841;SDS011;57138;51.326;-0.068;2023-06-10T13:39:51;7.95;;;5.20;;
69841;SDS011;57138;51.326;-0.068;2023-06-10T13:42:17;8.85;;;5.40;;
69841;SDS011;57138;51.326;-0.068;2023-06-10T13:44:43;9.45;;;5.63;;
69841;SDS011;57138;51.326;-0.068;2023-06-10T13:47:09;11.30;;;7.07;;
69841;SDS011;57138;51.326;-0.068;2023-06-10T13:49:34;11.52;;;6.97;;
69841;SDS011;57138;51.326;-0.068;2023-06-10T13:52:02;9.27;;;6.85;;
69841;SDS011;57138;51.326;-0.068;2023-06-10T13:54:31;13.60;;;6.80;;
69841;SDS011;57138;51.326;-0.068;2023-06-10T13:56:58;11.52;;;6.68;;
69841;SDS011;57138;51.326;-0.068;2023-06-10T13:59:25;10.05;;;7.03;;
69841;SDS011;57138;51.326;-0.068;2023-06-10T14:01:50;9.73;;;8.15;;
69841;SDS011;57138;51.326;-0.068;2023-06-10T14:04:16;14.32;;;8.13;;
69841;SDS011;57138;51.326;-0.068;2023-06-10T14:06:41;14.85;;;9.18;;
69841;SDS011;57138;51.326;-0.068;2023-06-10T14:09:07;15.38;;;8.05;;
69841;SDS011;57138;51.326;-0.068;2023-06-10T14:11:32;11.00;;;6.85;;
69841;SDS011;57138;51.326;-0.068;2023-06-10T14:13:58;11.18;;;6.95;;
69841;SDS011;57138;51.326;-0.068;2023-06-10T14:16:25;9.20;;;6.85;;
69841;SDS011;57138;51.326;-0.068;2023-06-10T14:18:51;13.63;;;7.03;;
69841;SDS011;57138;51.326;-0.068;2023-06-10T14:21:17;11.57;;;7.63;;
69841;SDS011;57138;51.326;-0.068;2023-06-10T14:23:42;13.65;;;7.15;;
69841;SDS011;57138;51.326;-0.068;2023-06-10T14:26:11;12.13;;;7.55;;
69841;SDS011;57138;51.326;-0.068;2023-06-10T14:28:37;13.63;;;7.10;;
69841;SDS011;57138;51.326;-0.068;2023-06-10T14:31:02;15.13;;;7.90;;
69841;SDS011;57138;51.326;-0.068;2023-06-10T14:33:28;11.00;;;8.15;;
69841;SDS011;57138;51.326;-0.068;2023-06-10T14:35:54;12.93;;;7.68;;
69841;SDS011;57138;51.326;-0.068;2023-06-10T14:38:19;13.50;;;7.88;;